Date,TemperatureHighF,TemperatureAvgF,TemperatureLowF,DewpointHighF,DewpointAvgF,DewpointLowF,HumidityHigh,HumidityAvg,HumidityLow,PressureMaxIn,PressureMinIn,WindSpeedMaxMPH,WindSpeedAvgMPH,GustSpeedMaxMPH,PrecipitationSumIn
2013-1-1,15.0,5.6,0.0,3.0,-1.7,-5.0,84,72,51,0.00,40.00,10,4,17,0.00
2013-1-2,18.0,7.4,0.0,4.0,0.2,-8.0,84,73,47,0.00,40.00,12,4,19,0.01
2013-1-3,20.0,3.4,-8.0,-2.0,-7.2,-14.0,76,62,30,0.00,40.00,7,5,11,0.01
2013-1-4,23.0,11.8,3.0,4.0,0.2,-4.0,73,60,41,0.00,40.00,8,4,11,0.01
2013-1-5,30.0,14.6,4.0,4.0,-0.4,-3.0,76,54,30,0.00,40.00,11,5,15,0.02
2013-1-6,33.0,19.0,8.0,5.0,-1.7,-8.0,61,41,24,0.00,40.00,11,5,15,0.01
2013-1-7,36.0,20.4,12.0,8.0,0.5,-5.0,50,42,27,0.00,40.00,9,5,12,0.00
2013-1-8,30.0,19.3,13.0,13.0,4.1,-5.0,80,52,36,0.00,40.00,11,5,17,0.00
2013-1-9,39.0,22.3,12.0,16.0,8.7,5.0,79,58,37,0.00,40.00,11,6,16,0.00
2013-1-10,43.0,28.0,19.0,12.0,5.2,1.0,50,38,23,0.00,40.00,12,6,17,0.00
2013-1-11,26.0,12.6,0.0,17.0,2.5,-11.0,91,65,30,0.00,40.00,24,12,39,0.00
2013-1-12,11.0,0.7,-7.0,-5.0,-8.7,-13.0,80,65,41,0.00,40.00,13,5,20,0.00
2013-1-13,5.0,-2.0,-10.0,-3.0,-9.7,-17.0,81,70,43,0.00,40.00,9,5,13,0.00
2013-1-14,5.0,-4.2,-11.0,-6.0,-12.3,-17.0,77,68,53,0.00,40.00,11,4,18,0.00
2013-1-15,2.0,-5.0,-14.0,-3.0,-12.1,-21.0,81,71,58,0.00,40.00,8,4,12,0.00
2013-1-16,24.0,13.2,2.0,10.0,5.7,-2.0,85,73,52,0.00,40.00,10,5,15,0.05
2013-1-17,32.0,17.5,8.0,12.0,8.9,5.0,87,70,42,0.00,40.00,9,5,13,0.05
2013-1-18,36.0,20.3,8.0,11.0,6.9,3.0,80,58,33,0.00,40.00,9,5,13,0.00
2013-1-19,35.0,21.4,11.0,7.0,2.8,-2.0,63,46,24,0.00,40.00,10,5,15,0.00
2013-1-20,38.0,22.4,12.0,7.0,2.0,-1.0,56,42,23,0.00,40.00,9,5,14,0.00
2013-1-21,35.0,22.1,12.0,9.0,2.6,-3.0,57,43,30,0.00,40.00,10,6,13,0.00
2013-1-22,41.0,25.8,14.0,4.0,-2.1,-8.0,44,31,18,0.00,40.00,8,5,12,0.00
2013-1-23,53.0,30.2,18.0,8.0,-2.7,-11.0,34,24,14,0.00,40.00,8,5,17,0.00
2013-1-24,42.0,30.5,25.0,29.0,12.4,-1.0,99,53,22,0.00,40.00,16,5,26,0.00
2013-1-25,35.0,31.0,29.0,32.0,29.7,28.0,99,95,85,0.00,40.00,8,4,13,0.09
2013-1-26,39.0,31.4,27.0,30.0,28.0,24.0,100,89,63,0.00,40.00,7,3,11,0.02
2013-1-27,40.0,30.2,22.0,34.0,27.7,15.0,99,90,71,0.00,40.00,9,5,16,0.24
2013-1-28,28.0,21.5,10.0,23.0,17.5,6.0,94,85,63,0.00,40.00,16,8,26,0.13
2013-1-29,13.0,7.9,4.0,7.0,2.5,0.0,86,79,62,0.00,40.00,15,7,25,0.05
2013-1-30,16.0,9.3,3.0,13.0,4.9,-2.0,87,82,77,0.00,40.00,19,13,31,0.05
2013-1-31,27.0,21.3,18.0,17.0,15.3,14.0,88,78,62,0.00,40.00,11,7,20,0.01
2013-2-1,30.0,22.8,18.0,18.0,15.4,13.0,93,74,49,0.00,40.00,21,10,38,0.01
2013-2-2,39.0,22.2,10.0,16.0,11.2,8.0,91,65,36,0.00,40.00,10,6,13,0.03
2013-2-3,39.0,22.8,14.0,11.0,7.1,1.0,77,54,25,0.00,40.00,12,6,24,0.01
2013-2-4,36.0,22.5,7.0,10.0,6.0,2.0,81,53,26,0.00,40.00,13,7,23,0.00
2013-2-5,41.0,25.9,12.0,17.0,11.6,5.0,76,56,37,0.00,40.00,10,6,16,0.00
2013-2-6,35.0,25.5,18.0,25.0,17.6,13.0,95,74,46,0.00,40.00,12,6,23,0.00
2013-2-7,34.0,20.4,8.0,20.0,11.4,3.0,92,69,49,0.00,40.00,11,5,18,0.13
2013-2-8,44.0,27.3,16.0,21.0,6.7,-2.0,82,43,24,0.00,40.00,13,6,23,0.02
2013-2-9,26.0,19.7,12.0,22.0,15.5,5.0,94,84,61,0.00,40.00,14,6,26,0.03
2013-2-10,23.0,13.7,8.0,10.0,5.9,2.0,86,72,45,0.00,40.00,11,7,18,0.03
2013-2-11,22.0,11.9,6.0,12.0,4.9,-0.0,88,74,49,0.00,40.00,14,7,22,0.01
2013-2-12,20.0,8.0,-3.0,2.0,-2.8,-8.0,82,63,37,0.00,40.00,13,5,19,0.02
2013-2-13,26.0,17.1,10.0,13.0,8.9,3.0,84,70,54,0.00,40.00,15,5,25,0.02
2013-2-14,25.0,18.2,15.0,18.0,12.5,7.0,91,78,59,0.00,40.00,17,7,26,0.05
2013-2-15,24.0,16.7,13.0,14.0,9.8,4.0,89,75,42,0.00,40.00,16,11,29,0.04
2013-2-16,36.0,21.7,7.0,12.0,6.9,3.0,86,56,31,0.00,40.00,15,6,24,0.01
2013-2-17,41.0,24.6,11.0,16.0,4.9,0.0,91,48,19,0.00,40.00,15,9,28,0.01
2013-2-18,23.0,13.5,4.0,11.0,3.4,-5.0,89,66,34,0.00,40.00,16,8,26,0.06
2013-2-19,32.0,18.3,3.0,4.0,-2.0,-9.0,71,42,25,0.00,40.00,13,7,19,0.01
2013-2-20,36.0,23.2,16.0,20.0,7.7,1.0,92,53,27,0.00,40.00,11,6,16,0.01
2013-2-21,22.0,17.8,13.0,18.0,15.0,10.0,92,88,80,0.00,40.00,13,7,21,0.00
2013-2-22,21.0,12.5,5.0,15.0,6.9,1.0,88,78,60,0.00,40.00,15,6,23,0.13
2013-2-23,26.0,14.9,4.0,18.0,9.1,-1.0,93,78,52,0.00,40.00,9,5,16,0.02
2013-2-24,18.0,12.9,9.0,14.0,9.4,4.0,89,86,82,0.00,40.00,10,6,17,0.01
2013-2-25,22.0,11.3,1.0,11.0,4.6,-3.0,84,74,60,0.00,40.00,11,6,16,0.08
2013-2-26,16.0,11.9,9.0,9.0,7.2,4.0,88,81,63,0.00,40.00,17,8,24,0.01
2013-2-27,21.0,12.2,3.0,9.0,3.3,-3.0,86,69,40,0.00,40.00,12,6,23,0.04
2013-2-28,25.0,12.9,-3.0,14.0,1.5,-10.0,89,62,35,0.00,40.00,14,8,25,0.01
2013-3-1,29.0,22.5,17.0,22.0,18.2,14.0,91,83,70,0.00,40.00,12,7,19,0.09
2013-3-2,44.0,31.9,23.0,23.0,20.4,17.0,91,65,38,0.00,40.00,11,5,18,0.01
2013-3-3,41.0,30.7,22.0,28.0,19.8,14.0,98,66,37,0.00,40.00,16,8,26,0.00
2013-3-4,29.0,21.5,3.0,27.0,15.2,-4.0,97,78,52,0.00,40.00,17,9,42,0.08
2013-3-5,39.0,18.2,0.0,9.0,-0.0,-9.0,77,50,21,0.00,40.00,12,7,16,0.04
2013-3-6,49.0,31.3,15.0,16.0,7.4,2.0,60,39,17,0.00,40.00,13,7,27,0.01
2013-3-7,49.0,36.4,25.0,13.0,7.4,2.0,48,32,14,0.00,40.00,13,7,23,0.00
2013-3-8,45.0,33.2,23.0,24.0,13.5,5.0,82,46,27,0.00,40.00,11,6,21,0.00
2013-3-9,27.0,23.2,15.0,26.0,20.8,9.0,97,90,78,0.00,40.00,14,8,26,0.00
2013-3-10,27.0,19.6,11.0,12.0,9.6,6.0,85,66,51,0.00,40.00,16,8,24,0.15
2013-3-11,36.0,23.5,13.0,20.0,13.3,8.0,84,66,44,0.00,40.00,21,10,35,0.01
2013-3-12,41.0,31.5,27.0,22.0,19.0,16.0,80,60,41,0.00,40.00,15,10,28,0.01
2013-3-13,46.0,35.4,25.0,23.0,17.8,14.0,76,51,29,0.00,40.00,15,6,23,0.00
2013-3-14,52.0,36.8,23.0,20.0,16.4,13.0,73,47,22,0.00,40.00,11,6,20,0.00
2013-3-15,53.0,40.8,29.0,21.0,17.8,15.0,62,42,23,0.00,40.00,20,9,34,0.00
2013-3-16,43.0,34.5,28.0,31.0,26.0,20.0,98,73,47,0.00,40.00,13,5,32,0.00
2013-3-17,33.0,27.6,23.0,26.0,17.8,1.0,96,70,32,0.00,40.00,29,15,50,0.17
2013-3-18,30.0,22.2,14.0,13.0,6.9,3.0,73,53,33,0.00,40.00,25,12,39,0.01
2013-3-19,37.0,28.0,19.0,8.0,-2.9,-15.0,52,30,10,0.00,40.00,17,11,31,0.00
2013-3-20,40.0,25.8,12.0,26.0,6.8,-8.0,93,48,21,0.00,40.00,14,8,24,0.00
2013-3-21,35.0,26.3,19.0,29.0,23.7,15.0,96,90,80,0.00,40.00,20,6,34,0.17
2013-3-22,30.0,20.1,12.0,19.0,13.3,9.0,91,76,50,0.00,40.00,16,6,29,0.07
2013-3-23,18.0,11.9,8.0,13.0,5.5,-2.0,88,76,49,0.00,40.00,15,8,24,0.01
2013-3-24,14.0,7.5,2.0,8.0,0.6,-4.0,82,73,55,0.00,40.00,14,6,24,0.01
2013-3-25,27.0,11.1,-5.0,-1.0,-5.7,-11.0,75,51,19,0.00,40.00,10,6,17,0.06
2013-3-26,43.0,26.1,6.0,23.0,9.3,-5.0,73,51,30,0.00,40.00,13,7,23,0.02
2013-3-27,47.0,35.1,26.0,28.0,21.2,12.0,96,65,25,0.00,40.00,17,8,28,0.07
2013-3-28,51.0,43.8,35.0,24.0,18.9,13.0,63,39,23,0.00,40.00,13,7,25,0.00
2013-3-29,48.0,36.5,29.0,30.0,24.2,19.0,88,62,36,0.00,40.00,13,6,34,0.00
2013-3-30,46.0,35.6,27.0,32.0,25.9,17.0,98,73,33,0.00,40.00,16,6,31,0.05
2013-3-31,51.0,36.3,22.0,23.0,15.1,4.0,82,49,15,0.00,40.00,15,9,25,0.05
2013-4-1,54.0,37.3,28.0,27.0,19.9,15.0,70,50,31,0.00,40.00,14,7,27,0.00
2013-4-2,42.0,31.9,26.0,33.0,26.3,21.0,98,81,53,0.00,40.00,14,4,25,0.04
2013-4-3,46.0,33.5,25.0,28.0,21.5,13.0,97,66,28,0.00,40.00,11,4,25,0.10
2013-4-4,52.0,38.6,25.0,23.0,17.6,15.0,71,46,23,0.00,40.00,13,7,25,0.10
2013-4-5,52.0,39.4,29.0,32.0,20.6,14.0,99,52,22,0.00,40.00,21,10,38,0.00
2013-4-6,47.0,36.0,26.0,32.0,24.2,14.0,99,67,26,0.00,40.00,16,7,30,0.11
2013-4-7,42.0,34.5,29.0,33.0,26.4,19.0,92,74,43,0.00,40.00,17,7,38,0.02
2013-4-8,53.0,39.3,30.0,29.0,20.3,11.0,85,51,18,0.00,40.00,16,9,29,0.02
2013-4-9,35.0,28.2,16.0,31.0,21.5,12.0,98,78,45,0.00,40.00,12,7,25,0.13
2013-4-10,25.0,17.9,9.0,19.0,12.1,5.0,93,79,61,0.00,40.00,16,9,26,0.03
2013-4-11,37.0,25.7,18.0,29.0,20.9,10.0,97,83,56,0.00,40.00,17,7,27,0.04
2013-4-12,47.0,32.7,25.0,29.0,20.5,9.0,97,68,21,0.00,40.00,12,6,25,0.31
2013-4-13,46.0,34.5,21.0,32.0,15.3,9.0,98,50,22,0.00,40.00,25,10,46,0.03
2013-4-14,33.0,26.3,21.0,29.0,15.7,5.0,98,68,35,0.00,40.00,19,11,39,0.05
2013-4-15,30.0,25.7,22.0,26.0,23.3,20.0,95,91,70,0.00,40.00,13,7,27,0.01
2013-4-16,51.0,33.7,22.0,33.0,23.3,17.0,94,69,27,0.00,40.00,14,8,23,0.31
2013-4-17,27.0,21.0,12.0,24.0,18.8,8.0,95,91,87,0.00,40.00,12,8,21,0.02
2013-4-18,19.0,12.1,7.0,13.0,6.6,3.0,87,78,65,0.00,40.00,17,8,27,0.01
2013-4-19,34.0,22.8,10.0,24.0,13.4,6.0,95,70,41,0.00,40.00,14,8,23,0.02
2013-4-20,40.0,30.2,24.0,31.0,26.2,23.0,98,86,55,0.00,40.00,11,5,21,0.25
2013-4-21,44.0,35.1,26.0,31.0,22.5,10.0,97,66,28,0.00,40.00,14,6,25,0.16
2013-4-22,45.0,34.9,27.0,29.0,21.2,12.0,97,61,26,0.00,40.00,22,9,39,0.05
2013-4-23,26.0,21.9,14.0,24.0,16.1,4.0,95,79,54,0.00,40.00,17,9,24,0.18
2013-4-24,40.0,25.1,9.0,10.0,5.5,2.0,73,47,23,0.00,40.00,14,8,25,0.03
2013-4-25,52.0,35.8,18.0,14.0,9.9,6.0,62,38,17,0.00,40.00,17,9,27,0.00
2013-4-26,53.0,40.2,26.0,16.0,11.2,6.0,60,34,15,0.00,40.00,11,6,22,0.00
2013-4-27,55.0,41.3,26.0,17.0,12.8,11.0,55,34,17,0.00,40.00,15,8,24,0.00
2013-4-28,59.0,45.3,30.0,20.0,16.8,14.0,53,34,18,0.00,40.00,18,8,28,0.00
2013-4-29,60.0,49.4,38.0,27.0,20.9,15.0,63,36,18,0.00,40.00,20,11,35,0.00
2013-4-30,59.0,50.2,38.0,35.0,21.1,15.0,90,35,21,0.00,40.00,22,9,50,0.03
2013-5-1,36.0,28.1,22.0,32.0,23.9,12.0,98,85,50,0.00,40.00,14,7,24,0.34
2013-5-2,35.0,25.3,15.0,16.0,10.4,7.0,87,57,32,0.00,40.00,15,7,27,0.02
2013-5-3,51.0,34.0,17.0,17.0,11.1,7.0,72,44,18,0.00,40.00,11,7,21,0.01
2013-5-4,55.0,42.2,31.0,27.0,16.4,8.0,58,38,16,0.00,40.00,16,9,33,0.00
2013-5-5,54.0,42.9,32.0,24.0,19.7,14.0,64,42,22,0.00,40.00,19,9,33,0.00
2013-5-6,54.0,39.8,33.0,36.0,27.5,22.0,99,65,29,0.00,40.00,18,6,29,0.13
2013-5-7,48.0,37.4,32.0,36.0,31.6,26.0,99,83,46,0.00,40.00,9,4,26,0.25
2013-5-8,39.0,33.2,28.0,35.0,31.4,27.0,99,93,81,0.00,40.00,12,6,17,0.38
2013-5-9,49.0,37.6,29.0,37.0,29.2,21.0,99,76,33,0.00,40.00,9,4,17,0.24
2013-5-10,53.0,42.7,30.0,29.0,24.2,19.0,80,51,27,0.00,40.00,9,6,27,0.11
2013-5-11,58.0,44.3,30.0,25.0,22.3,19.0,76,45,22,0.00,40.00,18,8,27,0.00
2013-5-12,61.0,47.5,33.0,32.0,26.5,23.0,84,48,24,0.00,40.00,14,8,24,0.00
2013-5-13,68.0,52.3,37.0,31.0,27.4,24.0,68,43,19,0.00,40.00,15,7,24,0.00
2013-5-14,69.0,52.4,37.0,36.0,30.3,25.0,70,47,20,0.00,40.00,15,9,22,0.00
2013-5-15,63.0,49.0,39.0,41.0,34.4,30.0,91,60,29,0.00,40.00,14,6,21,0.04
2013-5-16,63.0,45.4,35.0,39.0,12.5,-99.9,95,56,25,0.00,40.00,15,8,39,0.04
2013-5-17,67.0,51.5,41.0,28.0,13.3,-99.9,59,32,8,0.00,40.00,15,9,30,0.01
2013-5-18,55.0,42.3,32.0,35.0,25.0,17.0,98,54,29,0.00,40.00,16,7,29,0.07
2013-5-19,45.0,36.5,32.0,36.0,31.3,27.0,98,83,52,0.00,40.00,9,4,25,0.27
2013-5-20,47.0,36.3,31.0,37.0,32.0,29.0,98,85,55,0.00,40.00,14,6,25,0.31
2013-5-21,53.0,42.2,32.0,31.0,26.5,22.0,91,57,31,0.00,40.00,17,8,28,0.01
2013-5-22,65.0,49.3,32.0,28.0,24.6,18.0,79,44,17,0.00,40.00,17,7,29,0.01
2013-5-23,72.0,57.1,45.0,32.0,22.1,11.0,56,30,11,0.00,40.00,17,9,28,0.00
2013-5-24,67.0,54.1,40.0,31.0,20.9,8.0,68,33,10,0.00,40.00,18,9,34,0.00
2013-5-25,69.0,54.0,37.0,24.0,14.6,4.0,51,25,8,0.00,40.00,15,8,27,0.00
2013-5-26,68.0,54.5,38.0,25.0,17.0,11.0,46,26,11,0.00,40.00,15,8,25,0.00
2013-5-27,62.0,51.6,37.0,21.0,16.5,14.0,42,26,17,0.00,40.00,15,8,31,0.00
2013-5-28,63.0,50.1,36.0,26.0,19.4,14.0,53,32,15,0.00,40.00,16,8,27,0.00
2013-5-29,45.0,39.2,32.0,36.0,30.3,25.0,97,72,51,0.00,40.00,19,8,31,0.06
2013-5-30,49.0,40.2,33.0,32.0,26.6,18.0,91,62,30,0.00,40.00,19,10,41,0.02
2013-5-31,52.0,43.0,35.0,24.0,17.1,9.0,59,38,19,0.00,40.00,23,11,36,0.01
2013-6-1,59.0,45.4,33.0,26.0,21.8,14.0,58,41,25,0.00,40.00,11,6,20,0.00
2013-6-2,70.0,53.0,34.0,30.0,23.2,18.0,68,36,16,0.00,40.00,15,8,29,0.00
2013-6-3,68.0,56.0,40.0,27.0,22.9,20.0,49,29,17,0.00,40.00,18,8,57,0.00
2013-6-4,68.0,53.2,35.0,32.0,24.2,18.0,51,34,19,0.00,40.00,20,9,37,0.00
2013-6-5,66.0,53.4,40.0,34.0,27.2,19.0,69,40,17,0.00,40.00,16,8,30,0.00
2013-6-6,68.0,52.1,34.0,32.0,26.6,22.0,63,39,22,0.00,40.00,13,8,25,0.00
2013-6-7,66.0,53.4,43.0,40.0,32.7,29.0,66,48,26,0.00,40.00,13,7,30,0.00
2013-6-8,68.0,56.8,43.0,37.0,31.9,27.0,65,41,21,0.00,40.00,18,7,31,0.00
2013-6-9,74.0,59.2,42.0,34.0,30.0,27.0,56,36,19,0.00,40.00,15,6,25,0.00
2013-6-10,77.0,64.8,45.0,41.0,31.9,26.0,55,32,16,0.00,40.00,13,6,37,0.00
2013-6-11,73.0,61.5,48.0,33.0,22.4,16.0,43,25,12,0.00,40.00,19,10,40,0.00
2013-6-12,76.0,60.5,41.0,33.0,23.6,18.0,50,27,11,0.00,40.00,16,8,28,0.00
2013-6-13,75.0,61.5,45.0,37.0,27.9,23.0,44,29,16,0.00,40.00,21,8,39,0.00
2013-6-14,73.0,61.7,48.0,38.0,25.0,11.0,53,28,9,0.00,40.00,15,8,27,0.00
2013-6-15,70.0,56.6,39.0,33.0,25.3,21.0,56,32,18,0.00,40.00,18,8,31,0.00
2013-6-16,62.0,52.4,43.0,38.0,33.4,26.0,73,49,35,0.00,40.00,10,6,32,0.00
2013-6-17,70.0,53.6,39.0,42.0,34.3,27.0,80,52,20,0.00,40.00,14,8,23,0.01
2013-6-18,71.0,59.2,49.0,39.0,30.3,24.0,57,36,17,0.00,40.00,13,8,25,0.01
2013-6-19,74.0,59.7,43.0,35.0,18.9,7.0,43,25,8,0.00,40.00,20,10,36,0.00
2013-6-20,72.0,55.1,44.0,30.0,19.2,11.0,37,25,14,0.00,40.00,11,6,22,0.00
2013-6-22,70.0,64.0,53.0,32.0,20.9,15.0,31,20,14,0.00,40.00,17,11,29,0.00
2013-6-23,72.0,55.0,36.0,32.0,25.5,16.0,56,34,16,0.00,40.00,17,8,30,0.00
2013-6-24,70.0,57.1,41.0,31.0,22.9,15.0,51,30,13,0.00,40.00,15,9,30,0.00
2013-6-25,70.0,59.3,48.0,34.0,27.8,20.0,44,30,25,0.00,40.00,14,7,27,0.00
2013-6-26,77.0,63.1,44.0,38.0,32.1,26.0,61,35,20,0.00,40.00,13,8,24,0.00
2013-6-27,82.0,65.1,49.0,40.0,29.7,21.0,48,30,11,0.00,40.00,10,6,20,0.00
2013-6-28,82.0,67.0,53.0,47.0,34.1,24.0,49,31,14,0.00,40.00,14,7,22,0.00
2013-6-29,76.0,62.8,54.0,44.0,39.2,34.0,63,43,22,0.00,40.00,17,8,27,0.00
2013-6-30,72.0,59.2,48.0,44.0,40.8,38.0,69,52,30,0.00,40.00,16,7,32,0.11
2013-7-1,72.0,57.8,43.0,46.0,39.3,33.0,74,53,25,0.00,40.00,10,6,24,0.01
2013-7-2,71.0,57.2,43.0,43.0,38.6,34.0,83,53,26,0.00,40.00,17,7,28,0.01
2013-7-3,71.0,55.2,42.0,43.0,39.1,34.0,80,57,26,0.00,40.00,16,7,24,0.02
2013-7-4,76.0,59.3,42.0,45.0,39.7,33.0,88,54,22,0.00,40.00,12,7,22,0.02
2013-7-5,72.0,61.2,51.0,51.0,44.9,37.0,86,57,37,0.00,40.00,12,7,22,0.02
2013-7-6,73.0,60.0,46.0,49.0,44.7,41.0,96,62,32,0.00,40.00,11,6,22,0.09
2013-7-7,77.0,63.3,48.0,49.0,42.2,35.0,84,50,22,0.00,40.00,10,6,18,0.01
2013-7-8,76.0,59.6,46.0,50.0,43.0,33.0,94,60,22,0.00,40.00,14,8,26,0.18
2013-7-9,77.0,62.7,49.0,44.0,37.6,30.0,66,43,22,0.00,40.00,10,6,17,0.01
2013-7-10,80.0,67.6,55.0,45.0,33.3,-99.9,53,32,17,0.00,40.00,11,7,24,0.00
2013-7-11,83.0,66.4,54.0,49.0,41.2,33.0,66,44,17,0.00,40.00,12,7,25,0.00
2013-7-12,75.0,58.1,50.0,51.0,47.1,44.0,83,68,39,0.00,40.00,17,6,25,0.07
2013-7-13,71.0,58.6,50.0,54.0,49.1,46.0,90,73,41,0.00,40.00,15,7,23,0.07
2013-7-14,72.0,58.3,47.0,54.0,47.7,45.0,96,71,39,0.00,40.00,17,6,25,0.05
2013-7-15,73.0,58.7,49.0,52.0,46.7,44.0,86,67,36,0.00,40.00,9,6,20,0.02
2013-7-16,79.0,71.0,60.0,48.0,42.4,39.0,51,37,24,0.00,40.00,12,8,31,0.01
2013-7-17,80.0,60.9,50.0,56.0,45.9,41.0,82,60,28,0.00,40.00,11,6,20,0.04
2013-7-18,77.0,57.9,47.0,50.0,47.7,43.0,94,72,36,0.00,40.00,15,7,29,0.21
2013-7-19,78.0,61.5,49.0,52.0,44.8,32.0,97,62,19,0.00,40.00,11,6,21,0.06
2013-7-20,78.0,61.8,48.0,48.0,35.9,-99.9,82,47,14,0.00,40.00,13,7,24,0.00
2013-7-21,80.0,64.7,50.0,42.0,31.6,20.0,61,33,13,0.00,40.00,13,7,25,0.00
2013-7-22,81.0,65.7,53.0,39.0,26.8,15.0,51,27,9,0.00,40.00,14,7,23,0.00
2013-7-23,82.0,62.6,46.0,36.0,22.8,18.0,42,24,9,0.00,40.00,12,6,22,0.00
2013-7-24,74.0,63.8,56.0,43.0,37.4,23.0,52,38,25,0.00,40.00,10,6,24,0.00
2013-7-25,74.0,57.9,46.0,52.0,45.0,39.0,94,66,28,0.00,40.00,11,7,31,0.10
2013-7-26,76.0,59.3,43.0,47.0,38.4,31.0,90,53,19,0.00,40.00,11,7,20,0.04
2013-7-27,72.0,58.1,50.0,48.0,42.0,35.0,93,59,28,0.00,40.00,12,8,29,0.13
2013-7-28,67.0,53.5,48.0,53.0,48.4,45.0,96,84,47,0.00,40.00,8,4,16,0.47
2013-7-29,67.0,53.2,45.0,51.0,46.8,43.0,97,81,47,0.00,40.00,10,5,18,0.14
2013-7-30,70.0,56.2,42.0,48.0,42.3,35.0,97,65,31,0.00,40.00,15,7,26,0.03
2013-7-31,75.0,59.2,43.0,46.0,39.2,35.0,85,53,24,0.00,40.00,11,7,23,0.01
2013-8-1,70.0,56.3,47.0,45.0,41.2,36.0,78,58,37,0.00,40.00,11,7,21,0.00
2013-8-2,74.0,60.2,46.0,47.0,40.4,34.0,83,53,23,0.00,40.00,14,7,24,0.00
2013-8-3,75.0,58.9,51.0,49.0,43.7,39.0,84,60,27,0.00,40.00,12,6,20,0.07
2013-8-4,74.0,57.2,46.0,49.0,43.8,38.0,92,66,28,0.00,40.00,10,7,25,0.10
2013-8-5,71.0,54.8,44.0,48.0,44.4,41.0,94,71,34,0.00,40.00,11,7,19,0.08
2013-8-6,69.0,53.1,43.0,48.0,43.4,37.0,93,73,31,0.00,40.00,11,6,20,0.09
2013-8-7,66.0,52.9,45.0,42.0,39.6,36.0,84,63,37,0.00,40.00,7,6,21,0.06
2013-8-8,62.0,50.3,43.0,43.0,39.6,37.0,83,68,41,0.00,40.00,12,5,25,0.03
2013-8-9,66.0,51.8,42.0,46.0,39.6,36.0,81,65,33,0.00,40.00,10,7,23,0.03
2013-8-10,72.0,56.9,42.0,42.0,34.7,22.0,85,50,15,0.00,40.00,16,8,33,0.03
2013-8-11,72.0,56.8,44.0,41.0,34.5,25.0,77,48,17,0.00,40.00,14,7,26,0.00
2013-8-12,70.0,55.4,43.0,40.0,34.9,23.0,75,50,17,0.00,40.00,10,7,27,0.01
2013-8-13,68.0,52.8,41.0,44.0,37.2,-99.9,92,61,29,0.00,40.00,11,6,24,0.02
2013-8-14,69.0,49.6,38.0,43.0,31.5,-99.9,95,60,23,0.00,40.00,13,6,35,0.01
2013-8-15,75.0,52.4,39.0,36.0,17.3,-99.9,69,35,14,0.00,40.00,14,8,24,0.00
2013-8-16,79.0,59.5,45.0,33.0,20.5,-99.9,46,27,10,0.00,40.00,11,7,22,0.00
2013-8-17,80.0,64.0,49.0,37.0,27.0,20.0,47,28,11,0.00,40.00,12,6,25,0.00
2013-8-18,77.0,56.6,49.0,47.0,38.1,31.0,76,53,21,0.00,40.00,21,8,35,0.02
2013-8-21,79.0,61.5,47.0,46.0,40.7,32.0,81,51,18,0.00,40.00,12,7,22,0.01
2013-8-22,75.0,58.9,51.0,49.0,42.7,38.0,91,57,27,0.00,40.00,16,6,30,0.30
2013-8-23,71.0,56.2,48.0,49.0,46.4,44.0,92,72,41,0.00,40.00,15,8,21,0.13
2013-8-24,69.0,55.4,44.0,49.0,43.6,36.0,97,69,31,0.00,40.00,12,7,26,0.03
2013-8-25,67.0,56.0,48.0,53.0,46.5,42.0,89,72,42,0.00,40.00,11,5,23,0.01
2013-8-26,69.0,58.1,50.0,51.0,48.9,47.0,96,74,46,0.00,40.00,13,6,21,0.23
2013-8-27,74.0,54.3,46.0,52.0,48.4,45.0,97,83,38,0.00,40.00,8,7,14,0.25
2013-8-28,78.0,66.5,55.0,48.0,44.6,41.0,71,48,27,0.00,40.00,13,9,27,0.00
2013-8-29,80.0,58.7,45.0,49.0,44.0,35.0,92,64,20,0.00,40.00,11,7,20,0.00
2013-8-30,75.0,56.9,48.0,52.0,46.1,42.0,82,68,38,0.00,40.00,13,7,21,0.08
2013-8-31,75.0,56.8,47.0,51.0,46.3,42.0,96,71,33,0.00,40.00,12,7,21,0.04
2013-9-1,75.0,60.0,49.0,49.0,45.3,41.0,91,63,29,0.00,40.00,10,6,22,0.01
2013-9-2,78.0,62.0,49.0,48.0,44.9,41.0,86,57,27,0.00,40.00,14,6,21,0.00
2013-9-3,79.0,62.5,47.0,48.0,42.4,34.0,85,54,22,0.00,40.00,12,7,19,0.00
2013-9-4,76.0,61.1,50.0,48.0,45.5,44.0,80,59,32,0.00,40.00,15,8,25,0.00
2013-9-5,81.0,60.1,50.0,49.0,44.7,41.0,78,60,27,0.00,40.00,14,7,23,0.02
2013-9-6,77.0,58.6,47.0,49.0,45.0,40.0,89,66,27,0.00,40.00,16,8,29,0.05
2013-9-7,77.0,57.5,44.0,49.0,44.4,41.0,95,66,29,0.00,40.00,17,8,25,0.03
2013-9-17,67.0,52.2,39.0,44.0,40.0,37.0,98,68,33,0.00,40.00,11,7,27,0.00
2013-9-18,47.0,45.1,44.0,43.0,39.9,38.0,93,82,75,0.00,40.00,7,6,23,0.32
2013-9-19,60.0,47.5,39.0,42.0,33.0,17.0,99,64,20,0.00,40.00,14,8,27,0.05
2013-9-20,65.0,48.9,33.0,32.0,26.0,22.0,72,45,20,0.00,40.00,12,7,20,0.00
2013-9-21,66.0,50.9,37.0,37.0,30.9,26.0,70,49,25,0.00,40.00,12,7,24,0.00
2013-9-22,57.0,43.9,34.0,43.0,38.2,31.0,99,82,52,0.00,40.00,16,7,36,0.63
2013-9-23,49.0,38.5,32.0,36.0,31.0,26.0,100,78,44,0.00,40.00,16,9,31,0.69
2013-9-24,63.0,43.9,29.0,33.0,27.6,18.0,96,61,20,0.00,40.00,11,7,19,0.01
2013-9-25,68.0,51.7,37.0,24.0,20.3,16.0,52,32,15,0.00,40.00,17,8,39,0.01
2013-9-26,69.0,56.2,44.0,23.0,19.3,15.0,39,25,14,0.00,40.00,12,6,27,0.00
2013-9-27,49.0,36.2,26.0,38.0,29.9,22.0,99,81,34,0.00,40.00,19,8,33,0.18
2013-9-28,51.0,35.5,22.0,28.0,23.5,20.0,95,66,33,0.00,40.00,11,5,19,0.01
2013-9-29,58.0,41.8,27.0,26.0,21.8,18.0,90,50,23,0.00,40.00,16,8,29,0.01
2013-9-30,65.0,48.9,33.0,28.0,23.4,20.0,60,39,19,0.00,40.00,15,8,28,0.00
2013-10-3,64.0,48.1,31.0,27.0,22.2,18.0,86,39,18,0.00,40.00,16,8,30,0.00
2013-10-4,29.0,24.4,19.0,26.0,22.2,16.0,97,91,80,0.00,40.00,16,8,27,0.19
2013-10-5,39.0,26.2,19.0,22.0,18.2,15.0,93,74,39,0.00,40.00,11,6,18,0.17
2013-10-6,53.0,34.4,19.0,28.0,22.1,15.0,87,65,35,0.00,40.00,9,6,15,0.01
2013-10-7,62.0,43.3,28.0,27.0,23.1,18.0,87,52,20,0.00,40.00,11,7,18,0.00
2013-10-8,61.0,46.1,33.0,25.0,22.0,20.0,62,41,20,0.00,40.00,14,7,27,0.00
2013-10-9,53.0,43.0,34.0,28.0,24.1,17.0,68,49,31,0.00,40.00,11,7,18,0.00
2013-10-17,42.0,29.5,17.0,23.0,15.4,8.0,87,60,28,0.00,40.00,15,8,27,0.02
2013-10-18,35.0,27.1,20.0,26.0,18.1,11.0,97,72,39,0.00,40.00,13,8,25,0.19
2013-10-19,46.0,30.0,16.0,19.0,14.9,11.0,81,57,30,0.00,40.00,15,7,25,0.02
2013-10-20,42.0,32.2,24.0,23.0,19.1,16.0,76,59,42,0.00,40.00,15,6,24,0.00
2013-10-21,45.0,33.1,23.0,23.0,20.1,17.0,93,62,33,0.00,40.00,13,6,24,0.00
2013-10-22,54.0,36.3,22.0,23.0,20.4,17.0,82,56,27,0.00,40.00,12,6,20,0.00
2013-10-23,56.0,38.8,27.0,26.0,20.7,13.0,81,54,18,0.00,40.00,13,7,20,0.00
2013-10-24,57.0,40.0,27.0,24.0,19.1,14.0,70,47,19,0.00,40.00,14,7,23,0.00
2013-10-25,55.0,40.6,28.0,22.0,19.3,17.0,66,44,24,0.00,40.00,12,6,19,0.00
2013-10-26,55.0,40.4,28.0,24.0,18.6,14.0,70,45,21,0.00,40.00,12,6,19,0.00
2013-10-27,52.0,37.9,27.0,24.0,20.0,18.0,68,51,26,0.00,40.00,15,7,27,0.00
2013-10-28,56.0,41.5,32.0,22.0,15.6,-99.9,61,39,19,0.00,40.00,12,7,24,0.00
2013-10-29,46.0,36.4,29.0,30.0,20.7,11.0,98,59,24,0.00,40.00,18,8,32,0.00
2013-10-30,31.0,26.4,23.0,29.0,24.9,21.0,98,94,87,0.00,40.00,11,6,42,0.21
2013-10-31,26.0,24.2,22.0,24.0,20.9,18.0,96,87,73,0.00,40.00,13,9,26,0.21
2013-11-1,32.0,26.3,19.0,30.0,24.6,17.0,96,93,87,0.00,40.00,17,11,26,0.07
2013-11-2,46.0,28.3,14.0,25.0,18.2,11.0,90,68,37,0.00,40.00,12,7,19,0.07
2013-11-3,47.0,32.7,19.0,28.0,16.8,9.0,97,56,28,0.00,40.00,21,9,35,0.04
2013-11-4,32.0,22.7,11.0,26.0,18.5,8.0,91,84,70,0.00,40.00,10,5,15,0.11
2013-11-5,24.0,17.1,7.0,23.0,11.6,2.0,95,79,60,0.00,40.00,13,8,24,0.09
2013-11-6,33.0,17.6,5.0,16.0,8.8,0.0,81,69,50,0.00,40.00,12,6,22,0.01
2013-11-7,44.0,28.3,14.0,21.0,16.9,11.0,88,65,40,0.00,40.00,8,5,13,0.03
2013-11-8,47.0,36.2,28.0,19.0,16.0,13.0,68,45,28,0.00,40.00,19,8,34,0.01
2013-11-9,48.0,34.8,25.0,20.0,16.9,14.0,66,50,28,0.00,40.00,12,6,19,0.00
2013-11-10,50.0,37.6,26.0,19.0,16.7,15.0,64,45,25,0.00,40.00,12,7,22,0.00
2013-11-11,50.0,35.9,25.0,20.0,16.1,14.0,65,46,25,0.00,40.00,11,6,20,0.00
2013-11-12,51.0,35.6,25.0,20.0,14.8,10.0,64,45,21,0.00,40.00,12,7,18,0.00
2013-11-13,49.0,35.1,23.0,17.0,12.2,7.0,51,39,24,0.00,40.00,13,6,22,0.00
2013-11-14,44.0,33.6,26.0,29.0,18.9,9.0,96,59,27,0.00,40.00,12,4,17,0.04
2013-11-15,43.0,31.0,24.0,28.0,16.4,4.0,96,59,30,0.00,40.00,17,6,39,0.02
2013-11-16,32.0,26.3,21.0,26.0,20.9,14.0,96,81,56,0.00,40.00,23,12,46,0.00
2013-11-17,38.0,27.0,22.0,22.0,18.7,14.0,94,72,41,0.00,40.00,27,15,45,0.00
2013-11-18,44.0,26.9,15.0,19.0,15.3,11.0,92,66,26,0.00,40.00,9,6,14,0.00
2013-11-19,43.0,29.0,18.0,30.0,19.9,10.0,98,72,36,0.00,40.00,14,7,25,0.00
2013-11-20,41.0,32.3,28.0,29.0,26.0,22.0,97,79,57,0.00,40.00,10,5,16,0.04
2013-11-21,35.0,28.1,19.0,31.0,26.9,17.0,98,95,85,0.00,40.00,8,4,15,0.17
2013-11-22,28.0,22.1,17.0,23.0,18.9,15.0,92,87,74,0.00,40.00,19,6,32,0.01
2013-11-23,34.0,27.1,23.0,19.0,17.0,15.0,84,66,51,0.00,40.00,19,13,32,0.02
2013-11-24,30.0,26.0,23.0,27.0,21.8,16.0,97,84,71,0.00,40.00,10,6,17,0.01
2013-11-25,33.0,24.8,17.0,25.0,18.7,15.0,95,78,55,0.00,40.00,10,5,15,0.05
2013-11-26,36.0,24.6,17.0,18.0,15.0,11.0,85,68,41,0.00,40.00,11,5,19,0.02
2013-11-27,39.0,24.0,13.0,18.0,13.0,9.0,85,65,37,0.00,40.00,9,6,13,0.01
2013-11-28,41.0,28.3,20.0,20.0,14.8,12.0,74,58,41,0.00,40.00,10,5,14,0.00
2013-11-29,39.0,27.9,19.0,19.0,14.8,10.0,76,58,40,0.00,40.00,13,6,22,0.00
2013-11-30,37.0,24.2,14.0,17.0,13.4,9.0,85,65,42,0.00,40.00,14,6,19,0.00
2013-12-1,35.0,24.9,14.0,19.0,15.4,11.0,86,68,46,0.00,40.00,16,9,26,0.00
2013-12-2,33.0,28.0,24.0,21.0,19.1,14.0,84,70,46,0.00,40.00,12,5,26,0.00
2013-12-3,34.0,30.2,27.0,27.0,20.3,14.0,97,68,47,0.00,40.00,9,5,18,0.00
2013-12-4,27.0,9.2,-2.0,26.0,5.5,-7.0,96,85,78,0.00,40.00,12,6,20,0.00
2013-12-5,5.0,-3.6,-14.0,-1.0,-9.6,-21.0,78,74,70,0.00,40.00,11,5,16,0.00
2013-12-6,4.0,-1.7,-8.0,-1.0,-7.2,-14.0,80,77,73,0.00,40.00,8,4,12,0.00
2013-12-7,18.0,8.6,1.0,14.0,4.8,-4.0,86,84,80,0.00,40.00,10,4,15,0.00
2013-12-8,11.0,6.4,0.0,8.0,2.2,-5.0,87,82,78,0.00,40.00,17,8,27,0.00
2013-12-9,4.0,-2.2,-10.0,-3.0,-8.5,-17.0,79,74,70,0.00,40.00,12,8,22,0.00
2013-12-10,17.0,6.3,-10.0,11.0,0.4,-17.0,84,76,68,0.00,40.00,9,5,16,0.00
2013-12-12,37.0,17.8,7.0,17.0,7.8,1.0,77,66,41,0.00,40.00,9,6,15,0.17
2013-12-13,28.0,18.8,12.0,11.0,9.2,7.0,82,66,48,0.00,40.00,10,6,15,0.01
2013-12-14,25.0,16.5,11.0,14.0,9.8,6.0,87,75,55,0.00,40.00,11,5,17,0.01
2013-12-15,38.0,23.9,15.0,18.0,13.3,9.0,76,65,44,0.00,40.00,9,4,13,0.01
2013-12-16,41.0,26.2,17.0,19.0,13.8,10.0,78,61,39,0.00,40.00,8,5,11,0.01
2013-12-17,40.0,26.3,16.0,16.0,12.1,9.0,76,57,33,0.00,40.00,7,5,11,0.01
2013-12-18,41.0,29.7,22.0,13.0,10.4,9.0,60,46,28,0.00,40.00,12,5,15,0.00
2013-12-19,40.0,30.5,25.0,22.0,16.6,11.0,79,57,33,0.00,40.00,15,7,25,0.00
2013-12-20,27.0,22.5,17.0,24.0,20.1,15.0,94,90,80,0.00,40.00,13,8,24,0.00
2013-12-21,21.0,14.3,8.0,15.0,10.9,4.0,91,86,76,0.00,40.00,11,5,17,0.00
2013-12-22,18.0,14.1,10.0,12.0,9.1,7.0,87,80,69,0.00,40.00,16,9,28,0.00
2013-12-23,28.0,20.4,15.0,16.0,13.9,11.0,87,76,53,0.00,40.00,15,7,26,0.05
2013-12-24,26.0,18.3,6.0,20.0,13.9,1.0,91,83,68,0.00,40.00,14,6,31,0.01
2013-12-25,30.0,10.4,1.0,7.0,0.6,-4.0,82,67,31,0.00,40.00,9,6,13,0.09
2013-12-26,32.0,14.7,6.0,10.0,5.0,1.0,80,67,36,0.00,40.00,11,6,15,0.03
2013-12-28,31.0,23.4,18.0,20.0,16.0,13.0,92,73,55,0.00,40.00,8,5,16,0.02
2013-12-29,26.0,18.5,11.0,18.0,10.4,4.0,92,72,40,0.00,40.00,11,5,16,0.04
2013-12-30,32.0,20.0,13.0,11.0,8.2,6.0,74,61,39,0.00,40.00,11,5,21,0.01
2013-12-31,28.0,22.4,14.0,21.0,15.5,8.0,88,74,66,0.00,40.00,8,4,15,0.00
2014-1-1,24.0,19.4,11.0,22.0,17.0,8.0,93,90,86,0.00,40.00,17,10,30,0.00
2014-1-2,31.0,17.8,7.0,18.0,8.0,3.0,86,68,34,0.00,40.00,11,6,14,0.01